Time;durP1;ratioP1;P1;durP2;ratioP2;P2;SDS_P1;SDS_P2;PMS_P1;PMS_P2;Temp;Humidity;BMP_temperature;BMP_pressure;BME280_temperature;BME280_humidity;BME280_pressure;Samples;Min_cycle;Max_cycle;Signal;HPM_P1;HPM_P2
2023/09/13 00:02:04;;;;;;;1.98;1.25;;;17.80;99.90;;;;;;5087817;28;20032;-82
2023/09/13 00:04:30;;;;;;;3.08;1.10;;;17.70;99.90;;;;;;5089346;28;20021;-82
2023/09/13 00:06:55;;;;;;;1.10;1.00;;;17.60;99.90;;;;;;5087701;28;20529;-82
2023/09/13 00:09:21;;;;;;;1.45;0.70;;;17.70;99.90;;;;;;5088792;28;20024;-82
2023/09/13 00:11:47;;;;;;;0.85;0.85;;;17.60;99.90;;;;;;5088950;28;20036;-82
2023/09/13 00:14:13;;;;;;;1.38;1.17;;;17.60;99.90;;;;;;5088802;28;20027;-81
2023/09/13 00:16:39;;;;;;;3.67;1.40;;;17.60;99.90;;;;;;5088861;28;20499;-82
2023/09/13 00:19:06;;;;;;;1.45;1.00;;;17.60;99.90;;;;;;5087351;28;20016;-81
2023/09/13 00:21:32;;;;;;;2.45;1.50;;;17.50;99.90;;;;;;5088586;28;20051;-81
2023/09/13 00:23:58;;;;;;;1.35;1.25;;;17.40;99.90;;;;;;5087407;28;20050;-81
2023/09/13 00:26:24;;;;;;;1.38;1.27;;;17.40;99.90;;;;;;5088746;28;20480;-81
2023/09/13 00:28:50;;;;;;;0.93;0.93;;;17.60;99.90;;;;;;5090350;28;20469;-81
2023/09/13 00:31:16;;;;;;;1.35;0.85;;;17.50;99.90;;;;;;5090702;28;20027;-80
2023/09/13 00:33:42;;;;;;;1.38;1.27;;;17.50;99.90;;;;;;5090969;28;20028;-81
2023/09/13 00:36:07;;;;;;;1.50;1.40;;;17.60;99.90;;;;;;5090641;28;20027;-81
2023/09/13 00:38:33;;;;;;;2.72;1.77;;;17.50;99.90;;;;;;5091076;28;20020;-80
2023/09/13 00:40:59;;;;;;;1.20;1.15;;;17.50;99.90;;;;;;5092435;28;20377;-80
2023/09/13 00:43:25;;;;;;;4.10;1.50;;;17.50;99.90;;;;;;5090793;28;20051;-80
2023/09/13 00:45:51;;;;;;;2.92;1.10;;;17.40;99.90;;;;;;5091739;28;20032;-81
2023/09/13 00:48:17;;;;;;;1.00;1.00;;;17.40;99.90;;;;;;5090548;28;20044;-81
2023/09/13 00:50:46;;;;;;;1.42;1.17;;;17.40;99.90;;;;;;5090283;28;20558;-81
2023/09/13 00:53:13;;;;;;;1.33;1.15;;;17.30;99.90;;;;;;5090696;28;20028;-80
2023/09/13 00:55:40;;;;;;;1.17;1.08;;;17.30;99.90;;;;;;5091851;28;20175;-81
2023/09/13 00:58:06;;;;;;;2.83;1.45;;;17.20;99.90;;;;;;5090914;28;20020;-81
2023/09/13 01:00:33;;;;;;;0.90;0.90;;;17.20;99.90;;;;;;5090530;28;20055;-81
2023/09/13 01:02:59;;;;;;;7.07;1.25;;;17.20;99.90;;;;;;5091266;28;20042;-80
2023/09/13 01:05:26;;;;;;;1.15;1.08;;;17.20;99.90;;;;;;5091485;28;20024;-80
2023/09/13 01:07:51;;;;;;;1.40;1.30;;;17.10;99.90;;;;;;5090025;28;20039;-80
2023/09/13 01:10:19;;;;;;;2.00;1.13;;;17.10;99.90;;;;;;5090243;28;20024;-81
2023/09/13 01:12:45;;;;;;;4.32;1.20;;;17.20;99.90;;;;;;5090434;28;20024;-80
2023/09/13 01:15:12;;;;;;;1.77;1.58;;;17.20;99.90;;;;;;5091536;28;20036;-81
2023/09/13 01:17:53;;;;;;;1.80;1.70;;;17.20;99.90;;;;;;5090035;28;20020;-83
2023/09/13 01:20:42;;;;;;;0.98;0.88;;;17.10;99.90;;;;;;5090964;28;20044;-81
2023/09/13 01:23:41;;;;;;;1.92;1.27;;;17.10;99.90;;;;;;5081788;28;20036;-81
2023/09/13 01:26:26;;;;;;;;;;;17.10;99.90;;;;;;5086551;28;20554;-80
2023/09/13 01:28:54;;;;;;;2.60;1.73;;;17.10;99.90;;;;;;5088116;28;19907;-80
2023/09/13 01:31:24;;;;;;;4.25;2.33;;;17.10;99.90;;;;;;5087968;28;20510;-80
2023/09/13 01:33:50;;;;;;;2.10;1.90;;;17.10;99.90;;;;;;5088094;28;20028;-80
2023/09/13 01:36:16;;;;;;;0.93;0.93;;;17.20;99.90;;;;;;5089287;28;20024;-80
2023/09/13 01:38:41;;;;;;;2.03;1.50;;;17.30;99.90;;;;;;5089258;28;20028;-79
2023/09/13 01:41:49;;;;;;;1.67;1.40;;;17.30;99.90;;;;;;5088171;28;20039;-80
2023/09/13 01:44:15;;;;;;;1.60;1.38;;;17.30;99.90;;;;;;5030525;28;20032;-79
2023/09/13 01:46:45;;;;;;;3.22;1.88;;;17.40;99.90;;;;;;5047693;28;20436;-80
2023/09/13 01:49:13;;;;;;;2.67;2.20;;;17.50;99.90;;;;;;5071297;28;20032;-79
2023/09/13 01:51:40;;;;;;;3.70;2.45;;;17.50;99.90;;;;;;5093093;28;20044;-80
2023/09/13 01:54:06;;;;;;;2.15;1.67;;;17.70;99.90;;;;;;5093283;28;20016;-80
2023/09/13 01:56:31;;;;;;;5.22;2.25;;;17.80;99.90;;;;;;5090970;28;20389;-80
2023/09/13 01:58:57;;;;;;;4.63;2.08;;;17.90;99.90;;;;;;5090518;28;20055;-79
2023/09/13 02:01:23;;;;;;;3.70;1.95;;;17.90;99.90;;;;;;5090152;28;20123;-81
2023/09/13 02:03:49;;;;;;;1.30;1.20;;;17.90;99.90;;;;;;5089335;28;20027;-80
2023/09/13 02:06:14;;;;;;;1.95;1.80;;;17.90;99.90;;;;;;5090557;28;20027;-79
2023/09/13 02:08:42;;;;;;;1.80;1.20;;;17.80;99.90;;;;;;5090455;28;20016;-80
2023/09/13 02:11:08;;;;;;;2.42;1.85;;;17.80;99.90;;;;;;5090871;28;20032;-81
2023/09/13 02:13:34;;;;;;;3.97;2.25;;;17.80;99.90;;;;;;5090309;28;20115;-80
2023/09/13 02:16:00;;;;;;;2.03;1.70;;;17.70;99.90;;;;;;5091001;28;20024;-81
2023/09/13 02:18:26;;;;;;;3.33;1.48;;;17.70;99.90;;;;;;5090652;28;20024;-80
2023/09/13 02:20:52;;;;;;;3.95;2.08;;;17.70;99.90;;;;;;5092361;28;20147;-81
2023/09/13 02:23:17;;;;;;;6.40;2.38;;;17.70;99.90;;;;;;5089702;28;20069;-82
2023/09/13 02:25:44;;;;;;;5.38;2.00;;;17.60;99.90;;;;;;5093811;28;20407;-80
2023/09/13 02:28:11;;;;;;;6.55;1.85;;;17.70;99.90;;;;;;5090400;28;20107;-82
2023/09/13 02:30:37;;;;;;;4.53;1.98;;;17.70;99.90;;;;;;5089535;28;20027;-83
2023/09/13 02:33:03;;;;;;;2.10;1.75;;;17.80;99.90;;;;;;5089915;28;20262;-83
2023/09/13 02:35:30;;;;;;;1.95;1.80;;;17.80;99.90;;;;;;5088994;28;20024;-81
2023/09/13 02:37:55;;;;;;;4.00;2.13;;;17.90;99.90;;;;;;5089164;28;20456;-82
2023/09/13 02:40:21;;;;;;;1.55;1.45;;;17.90;99.90;;;;;;5089142;28;20127;-82
2023/09/13 02:42:47;;;;;;;1.75;1.65;;;17.90;99.90;;;;;;5090280;28;20098;-83
2023/09/13 02:45:13;;;;;;;1.60;1.45;;;17.90;99.90;;;;;;5089136;28;20072;-84
2023/09/13 02:47:39;;;;;;;4.07;1.90;;;17.90;99.90;;;;;;5089060;28;20114;-84
2023/09/13 02:50:05;;;;;;;3.08;2.17;;;17.90;99.90;;;;;;5088431;28;20457;-83
2023/09/13 02:52:32;;;;;;;3.17;1.65;;;17.80;99.90;;;;;;5089242;28;20028;-82
2023/09/13 02:54:58;;;;;;;2.22;1.88;;;17.90;99.90;;;;;;5089042;28;20468;-83
2023/09/13 02:57:24;;;;;;;2.35;1.85;;;17.90;99.90;;;;;;5089387;28;20020;-83
2023/09/13 02:59:50;;;;;;;3.17;1.98;;;18.00;99.90;;;;;;5089019;28;20078;-83
2023/09/13 03:02:16;;;;;;;2.30;1.48;;;18.00;99.90;;;;;;5088969;28;20040;-83
2023/09/13 03:04:42;;;;;;;2.25;2.05;;;18.00;99.90;;;;;;5089959;28;20381;-82
2023/09/13 03:07:09;;;;;;;2.28;2.03;;;18.00;99.90;;;;;;5089866;28;20053;-84
2023/09/13 03:09:34;;;;;;;1.42;1.33;;;18.00;99.90;;;;;;5088604;28;20020;-84
2023/09/13 03:12:01;;;;;;;1.50;1.40;;;17.90;99.90;;;;;;5088535;28;20031;-83
2023/09/13 03:14:28;;;;;;;1.85;1.30;;;18.00;99.90;;;;;;5088724;28;20107;-84
2023/09/13 03:16:53;;;;;;;1.75;1.55;;;18.00;99.90;;;;;;5088548;28;20020;-83
2023/09/13 03:19:19;;;;;;;1.42;1.10;;;17.90;99.90;;;;;;5089602;28;20055;-83
2023/09/13 03:21:45;;;;;;;1.48;1.38;;;17.90;99.90;;;;;;5088201;28;20126;-84
2023/09/13 03:24:11;;;;;;;2.22;1.95;;;18.00;99.90;;;;;;5088764;28;20515;-81
2023/09/13 03:26:37;;;;;;;1.95;1.48;;;18.00;99.90;;;;;;5088610;28;20537;-84
2023/09/13 03:29:02;;;;;;;3.28;1.55;;;18.00;99.90;;;;;;5089790;28;20027;-84
2023/09/13 03:31:28;;;;;;;13.40;3.05;;;18.00;99.90;;;;;;5089076;28;20499;-84
2023/09/13 03:33:56;;;;;;;1.55;1.45;;;18.10;99.90;;;;;;5090362;28;20032;-84
2023/09/13 03:36:22;;;;;;;3.20;1.38;;;18.10;99.90;;;;;;5088280;28;20480;-83
2023/09/13 03:38:48;;;;;;;1.88;1.13;;;18.20;99.90;;;;;;5088479;28;20036;-84
2023/09/13 03:41:18;;;;;;;1.95;1.52;;;18.20;99.90;;;;;;5088566;28;20484;-84
2023/09/13 03:43:44;;;;;;;2.25;1.98;;;18.20;99.90;;;;;;5091373;28;20031;-81
2023/09/13 03:46:10;;;;;;;4.47;2.00;;;18.20;99.90;;;;;;5088800;28;20186;-85
2023/09/13 03:48:37;;;;;;;1.70;1.40;;;18.10;99.90;;;;;;5090036;28;20027;-85
2023/09/13 03:51:03;;;;;;;3.28;2.03;;;18.10;99.90;;;;;;5089404;28;20441;-84
2023/09/13 03:53:29;;;;;;;3.47;1.42;;;18.10;99.90;;;;;;5088564;28;20030;-82
2023/09/13 03:55:55;;;;;;;1.33;1.25;;;18.10;99.90;;;;;;5088202;28;20028;-84
2023/09/13 03:58:21;;;;;;;1.42;1.20;;;18.10;99.90;;;;;;5088679;28;20437;-83
2023/09/13 04:00:47;;;;;;;1.15;1.15;;;18.20;99.90;;;;;;5089588;28;20024;-85
2023/09/13 04:03:15;;;;;;;1.45;1.38;;;18.20;99.90;;;;;;5090713;28;20035;-83
2023/09/13 04:05:40;;;;;;;2.25;1.17;;;18.20;99.90;;;;;;5091921;28;20025;-84
2023/09/13 04:08:06;;;;;;;4.80;1.80;;;18.10;99.90;;;;;;5093282;28;20386;-84
2023/09/13 04:10:32;;;;;;;1.35;1.25;;;18.00;99.90;;;;;;5091974;28;20053;-84
2023/09/13 04:12:57;;;;;;;1.20;1.10;;;17.90;99.90;;;;;;5092881;28;20024;-85
2023/09/13 04:15:23;;;;;;;4.25;1.77;;;17.90;99.90;;;;;;5090390;28;20031;-83
2023/09/13 04:17:49;;;;;;;2.10;1.90;;;17.90;99.90;;;;;;5090895;28;20116;-83
2023/09/13 04:20:15;;;;;;;1.48;1.38;;;17.80;99.90;;;;;;5089999;28;20410;-85
2023/09/13 04:22:41;;;;;;;2.08;1.75;;;17.80;99.90;;;;;;5091449;28;20107;-84
2023/09/13 04:25:07;;;;;;;1.23;1.13;;;17.90;99.90;;;;;;5090356;28;20036;-83
2023/09/13 04:27:32;;;;;;;5.07;1.83;;;17.90;99.90;;;;;;5090368;28;20025;-84
2023/09/13 04:29:58;;;;;;;3.83;1.55;;;17.90;99.90;;;;;;5089874;28;20214;-85
2023/09/13 04:32:24;;;;;;;1.85;1.75;;;17.80;99.90;;;;;;5090277;28;20119;-83
2023/09/13 04:34:51;;;;;;;1.10;1.08;;;17.70;99.90;;;;;;5090225;28;20023;-84
2023/09/13 04:37:16;;;;;;;2.38;1.70;;;17.70;99.90;;;;;;5091929;28;20024;-83
2023/09/13 04:39:42;;;;;;;2.47;1.38;;;17.50;99.90;;;;;;5092843;28;20549;-84
2023/09/13 04:42:08;;;;;;;2.83;2.05;;;17.50;99.90;;;;;;5091493;28;20055;-84
2023/09/13 04:44:34;;;;;;;1.17;1.08;;;17.50;99.90;;;;;;5091317;28;20184;-85
2023/09/13 04:46:59;;;;;;;1.23;1.13;;;17.50;99.90;;;;;;5091467;28;20050;-84
2023/09/13 04:49:26;;;;;;;1.95;1.50;;;17.50;99.90;;;;;;5090934;28;20020;-84
2023/09/13 04:51:52;;;;;;;1.33;1.20;;;17.40;99.90;;;;;;5092744;28;20020;-85
2023/09/13 04:54:18;;;;;;;1.83;1.67;;;17.50;99.90;;;;;;5091422;28;20686;-86
2023/09/13 04:56:44;;;;;;;1.02;1.02;;;17.40;99.90;;;;;;5092689;28;20016;-84
2023/09/13 04:59:09;;;;;;;1.88;1.35;;;17.40;99.90;;;;;;5091832;28;20038;-85
2023/09/13 05:01:35;;;;;;;4.43;1.90;;;17.40;99.90;;;;;;5091473;28;20076;-84
2023/09/13 05:04:01;;;;;;;1.73;1.13;;;17.30;99.90;;;;;;5092471;28;20464;-83
2023/09/13 05:06:26;;;;;;;2.35;1.70;;;17.30;99.90;;;;;;5092104;28;20520;-84
2023/09/13 05:08:53;;;;;;;8.55;2.40;;;17.40;99.90;;;;;;5090668;28;20070;-81
2023/09/13 05:11:19;;;;;;;1.40;1.30;;;17.30;99.90;;;;;;5086194;28;20032;-83
2023/09/13 05:13:47;;;;;;;3.97;1.65;;;17.30;99.90;;;;;;5083822;28;20028;-83
2023/09/13 05:16:14;;;;;;;1.52;1.42;;;17.30;99.90;;;;;;5090375;28;20031;-83
2023/09/13 05:18:40;;;;;;;3.20;1.90;;;17.30;99.90;;;;;;5090152;28;20085;-83
2023/09/13 05:21:05;;;;;;;1.30;1.25;;;17.40;99.90;;;;;;5091147;28;20113;-84
2023/09/13 05:23:31;;;;;;;1.55;1.45;;;17.50;99.90;;;;;;5089836;28;20028;-81
2023/09/13 05:25:57;;;;;;;1.33;1.23;;;17.40;99.90;;;;;;5089439;28;20031;-81
2023/09/13 05:28:23;;;;;;;1.77;1.55;;;17.40;99.90;;;;;;5091092;28;20366;-82
2023/09/13 05:30:49;;;;;;;1.65;1.00;;;17.40;99.90;;;;;;5091151;28;20104;-81
2023/09/13 05:33:15;;;;;;;3.65;1.65;;;17.40;99.90;;;;;;5086359;28;20055;-81
2023/09/13 05:35:40;;;;;;;1.58;1.48;;;17.40;99.90;;;;;;5069727;28;20473;-81
2023/09/13 05:38:06;;;;;;;1.30;1.20;;;17.30;99.90;;;;;;5071002;28;20040;-81
2023/09/13 05:40:31;;;;;;;2.03;1.50;;;17.30;99.90;;;;;;5071119;28;20033;-82
2023/09/13 05:42:58;;;;;;;2.08;1.73;;;17.40;99.90;;;;;;5069520;28;20024;-82
2023/09/13 05:45:24;;;;;;;1.48;1.05;;;17.30;99.90;;;;;;5070303;28;20058;-87
2023/09/13 05:47:50;;;;;;;2.20;1.52;;;17.40;99.90;;;;;;5070853;28;20096;-85
2023/09/13 05:50:16;;;;;;;1.25;0.93;;;17.40;99.90;;;;;;5067886;28;20027;-78
2023/09/13 05:52:43;;;;;;;1.50;1.40;;;17.40;99.90;;;;;;5069743;28;20036;-87
2023/09/13 05:55:09;;;;;;;1.58;1.40;;;17.40;99.90;;;;;;5068871;28;20079;-81
2023/09/13 05:57:35;;;;;;;2.15;1.60;;;17.50;99.90;;;;;;5070092;28;20043;-88
2023/09/13 06:00:00;;;;;;;1.63;1.52;;;17.50;99.90;;;;;;5068335;28;20119;-83
2023/09/13 06:02:26;;;;;;;1.95;1.80;;;17.50;99.90;;;;;;5077571;28;20042;-83
2023/09/13 06:04:51;;;;;;;3.80;1.92;;;17.60;99.90;;;;;;5087299;28;20024;-80
2023/09/13 06:07:17;;;;;;;1.73;1.63;;;17.70;99.90;;;;;;5087487;28;20059;-79
2023/09/13 06:09:43;;;;;;;1.45;1.30;;;17.80;99.90;;;;;;5087598;28;20441;-80
2023/09/13 06:12:09;;;;;;;1.25;1.15;;;18.00;99.90;;;;;;5088063;28;20086;-79
2023/09/13 06:14:34;;;;;;;1.67;1.40;;;18.20;99.90;;;;;;5088316;28;20115;-81
2023/09/13 06:17:00;;;;;;;1.05;1.05;;;18.30;99.90;;;;;;5089943;28;20031;-84
2023/09/13 06:19:26;;;;;;;1.67;1.40;;;18.40;99.90;;;;;;5089957;28;20129;-83
2023/09/13 06:21:51;;;;;;;1.40;1.38;;;18.50;99.90;;;;;;5089910;28;20039;-85
2023/09/13 06:24:17;;;;;;;2.20;1.67;;;18.50;99.90;;;;;;5089113;28;20028;-87
2023/09/13 06:26:43;;;;;;;1.60;1.20;;;18.70;99.90;;;;;;5088389;28;20032;-83
2023/09/13 06:29:10;;;;;;;5.57;1.70;;;18.90;99.90;;;;;;5089879;28;20024;-83
2023/09/13 06:31:35;;;;;;;2.42;1.65;;;18.90;99.90;;;;;;5087191;28;20028;-81
2023/09/13 06:34:03;;;;;;;5.03;2.30;;;19.00;99.90;;;;;;5088916;28;20028;-84
2023/09/13 06:36:29;;;;;;;6.15;1.75;;;19.10;99.90;;;;;;5088998;28;20062;-84
2023/09/13 06:38:55;;;;;;;2.25;1.83;;;19.30;99.90;;;;;;5088935;28;20476;-84
2023/09/13 06:41:20;;;;;;;4.68;2.13;;;19.40;99.90;;;;;;5088820;28;20373;-83
2023/09/13 06:43:46;;;;;;;3.60;1.90;;;19.50;99.90;;;;;;5088904;28;20027;-84
2023/09/13 06:46:12;;;;;;;2.08;1.88;;;19.40;99.90;;;;;;5088856;28;20031;-83
2023/09/13 06:48:38;;;;;;;4.35;1.52;;;19.30;99.90;;;;;;5088013;28;20016;-79
2023/09/13 06:51:04;;;;;;;6.15;1.50;;;19.30;99.90;;;;;;5088642;28;20058;-81
2023/09/13 06:53:29;;;;;;;1.50;1.40;;;19.30;99.90;;;;;;5089531;28;20051;-81
2023/09/13 06:55:55;;;;;;;1.10;1.00;;;19.30;99.90;;;;;;5088795;28;20112;-82
2023/09/13 06:58:22;;;;;;;1.98;1.63;;;19.30;99.90;;;;;;5089753;28;20020;-81
2023/09/13 07:00:47;;;;;;;1.20;1.10;;;19.40;99.90;;;;;;5089646;28;20069;-82
2023/09/13 07:03:13;;;;;;;2.17;1.48;;;19.50;99.90;;;;;;5089696;28;20111;-89
2023/09/13 07:05:39;;;;;;;2.47;1.75;;;19.60;99.90;;;;;;5087907;28;20265;-81
2023/09/13 07:08:05;;;;;;;2.17;1.45;;;19.60;99.90;;;;;;5088961;28;20020;-85
2023/09/13 07:10:30;;;;;;;3.10;1.20;;;19.70;99.90;;;;;;5087702;28;20042;-88
2023/09/13 07:12:57;;;;;;;2.10;1.40;;;19.70;99.90;;;;;;5087857;28;20356;-89
2023/09/13 07:15:25;;;;;;;1.35;1.10;;;19.80;99.90;;;;;;5087883;28;20400;-82
2023/09/13 07:17:51;;;;;;;4.60;1.45;;;19.80;99.90;;;;;;5087805;28;20480;-83
2023/09/13 07:20:17;;;;;;;1.15;1.05;;;19.70;99.90;;;;;;5088801;28;20056;-84
2023/09/13 07:22:43;;;;;;;2.22;1.40;;;19.70;99.90;;;;;;5087754;28;20640;-85
2023/09/13 07:25:08;;;;;;;7.07;1.63;;;19.60;99.90;;;;;;5088903;28;20024;-84
2023/09/13 07:27:34;;;;;;;1.27;1.08;;;19.40;99.90;;;;;;5087813;28;20412;-86
2023/09/13 07:30:00;;;;;;;1.65;1.48;;;19.30;99.90;;;;;;5086490;28;20028;-85
2023/09/13 07:32:26;;;;;;;2.38;1.40;;;19.30;99.90;;;;;;5085917;28;20116;-83
2023/09/13 07:34:52;;;;;;;2.58;1.90;;;19.40;99.90;;;;;;5085250;28;20027;-84
2023/09/13 07:37:17;;;;;;;1.35;1.15;;;19.40;99.90;;;;;;5088790;28;20028;-83
2023/09/13 07:39:43;;;;;;;1.55;1.30;;;19.50;99.90;;;;;;5089420;28;20024;-82
2023/09/13 07:42:10;;;;;;;2.47;1.40;;;19.50;99.90;;;;;;5089136;28;20024;-82
2023/09/13 07:44:36;;;;;;;1.65;1.55;;;19.70;99.90;;;;;;5090700;28;20016;-84
2023/09/13 07:47:02;;;;;;;7.22;2.13;;;19.70;99.90;;;;;;5092431;28;20581;-83
2023/09/13 07:49:27;;;;;;;1.75;1.25;;;19.90;99.90;;;;;;5090978;28;20027;-85
2023/09/13 07:51:53;;;;;;;3.28;1.98;;;19.90;99.90;;;;;;5090974;28;20031;-86
2023/09/13 07:54:19;;;;;;;1.58;1.38;;;19.90;99.90;;;;;;5092758;28;20020;-85
2023/09/13 07:56:44;;;;;;;0.90;0.90;;;19.80;99.90;;;;;;5091661;28;20043;-85
2023/09/13 07:59:14;;;;;;;2.50;1.67;;;19.80;99.90;;;;;;5092685;28;20104;-81
2023/09/13 08:01:40;;;;;;;3.45;1.88;;;19.80;99.90;;;;;;5093208;28;20111;-87
2023/09/13 08:04:06;;;;;;;1.25;1.15;;;19.90;99.90;;;;;;5089413;28;20072;-83
2023/09/13 08:06:32;;;;;;;1.45;1.35;;;19.90;99.90;;;;;;5093151;28;20028;-83
2023/09/13 08:08:58;;;;;;;3.65;1.52;;;20.00;99.90;;;;;;5094163;28;20020;-81
2023/09/13 08:11:24;;;;;;;1.25;1.15;;;20.20;99.90;;;;;;5090497;28;20076;-81
2023/09/13 08:13:49;;;;;;;2.97;1.70;;;20.40;99.90;;;;;;5090161;28;20028;-80
2023/09/13 08:16:16;;;;;;;1.45;1.27;;;20.50;99.90;;;;;;5091960;28;20024;-80
2023/09/13 08:18:42;;;;;;;1.55;1.45;;;20.60;99.90;;;;;;5091865;28;20051;-81
2023/09/13 08:21:07;;;;;;;1.63;1.52;;;20.70;99.90;;;;;;5089218;28;20500;-81
2023/09/13 08:23:35;;;;;;;1.42;1.02;;;20.90;99.90;;;;;;5089621;28;20354;-81
2023/09/13 08:26:01;;;;;;;3.13;2.05;;;20.90;99.90;;;;;;5089762;28;20107;-82
2023/09/13 08:28:26;;;;;;;2.75;1.73;;;20.90;99.90;;;;;;5090388;28;20103;-81
2023/09/13 08:30:52;;;;;;;1.60;1.50;;;20.90;99.90;;;;;;5089449;28;20385;-81
2023/09/13 08:33:18;;;;;;;2.95;1.88;;;21.10;99.90;;;;;;5088905;28;20508;-81
2023/09/13 08:35:43;;;;;;;1.05;1.00;;;21.20;99.90;;;;;;5089915;28;20464;-81
2023/09/13 08:38:09;;;;;;;5.45;1.40;;;21.50;99.90;;;;;;5089702;28;20479;-80
2023/09/13 08:40:45;;;;;;;1.40;1.30;;;21.90;99.90;;;;;;5090692;28;20048;-80
2023/09/13 08:43:12;;;;;;;1.77;1.67;;;22.00;99.90;;;;;;5092303;28;20504;-81
2023/09/13 08:45:38;;;;;;;3.38;1.30;;;22.30;99.90;;;;;;5091208;28;20020;-82
2023/09/13 08:48:09;;;;;;;1.67;1.45;;;22.80;99.90;;;;;;5090084;28;20035;-82
2023/09/13 08:50:36;;;;;;;1.60;1.20;;;23.10;99.90;;;;;;5090366;28;20020;-80
2023/09/13 08:53:03;;;;;;;3.92;1.40;;;23.30;99.90;;;;;;5090494;28;20024;-81
2023/09/13 08:55:31;;;;;;;1.48;1.20;;;23.30;99.90;;;;;;5090849;28;20024;-80
2023/09/13 08:57:57;;;;;;;1.30;1.20;;;23.10;99.90;;;;;;5091746;28;20027;-81
2023/09/13 09:00:28;;;;;;;4.35;1.27;;;22.90;99.90;;;;;;5092003;28;20032;-80
2023/09/13 09:03:03;;;;;;;1.10;1.00;;;23.20;99.90;;;;;;5090477;28;20047;-82
2023/09/13 09:05:30;;;;;;;1.40;1.10;;;23.50;99.90;;;;;;5089952;28;20028;-81
2023/09/13 09:07:58;;;;;;;1.10;1.10;;;22.90;99.90;;;;;;5090350;28;20465;-82
2023/09/13 09:10:24;;;;;;;1.13;1.10;;;22.90;99.90;;;;;;5091649;28;20376;-81
2023/09/13 09:12:52;;;;;;;1.58;1.38;;;23.00;99.90;;;;;;5090086;28;20120;-81
2023/09/13 09:15:19;;;;;;;3.72;1.80;;;23.10;99.90;;;;;;5090106;28;20107;-81
2023/09/13 09:17:48;;;;;;;1.20;1.10;;;23.20;99.90;;;;;;5091418;28;20424;-82
2023/09/13 09:20:14;;;;;;;1.05;1.02;;;23.20;99.90;;;;;;5089678;28;20047;-81
2023/09/13 09:22:40;;;;;;;1.25;1.13;;;23.40;99.90;;;;;;5091340;28;20540;-82
2023/09/13 09:25:11;;;;;;;0.98;0.98;;;23.40;99.90;;;;;;5089764;28;20024;-81
2023/09/13 09:27:38;;;;;;;0.80;0.80;;;23.50;99.90;;;;;;5091187;28;20107;-81
2023/09/13 09:30:07;;;;;;;1.30;1.13;;;23.30;99.90;;;;;;5089792;28;20224;-81
2023/09/13 09:32:36;;;;;;;3.05;1.10;;;23.60;99.90;;;;;;5090893;28;20031;-82
2023/09/13 09:35:04;;;;;;;2.22;0.90;;;23.90;99.90;;;;;;5089581;28;20028;-82
2023/09/13 09:37:32;;;;;;;1.60;1.27;;;24.10;99.90;;;;;;5091006;28;20027;-81
2023/09/13 09:39:58;;;;;;;2.13;1.65;;;24.50;99.90;;;;;;5091242;28;20024;-81
2023/09/13 09:42:24;;;;;;;2.80;1.08;;;24.10;99.90;;;;;;5089871;28;20162;-82
2023/09/13 09:44:55;;;;;;;1.25;1.00;;;24.30;99.90;;;;;;5090935;28;20021;-81
2023/09/13 09:47:21;;;;;;;1.48;1.00;;;24.10;99.90;;;;;;5089544;28;20035;-82
2023/09/13 09:49:47;;;;;;;0.80;0.80;;;23.80;99.90;;;;;;5089470;28;20020;-81
2023/09/13 09:52:15;;;;;;;1.83;1.15;;;23.60;99.90;;;;;;5089644;28;20440;-81
2023/09/13 09:54:46;;;;;;;2.00;0.80;;;23.70;99.90;;;;;;5090081;28;20024;-82
2023/09/13 09:57:26;;;;;;;1.33;0.88;;;23.90;99.90;;;;;;5089450;28;20024;-81
2023/09/13 09:59:51;;;;;;;0.57;0.57;;;23.90;99.90;;;;;;5088685;28;20435;-82
2023/09/13 10:02:24;;;;;;;0.70;0.70;;;23.80;99.90;;;;;;5089417;28;20039;-81
2023/09/13 10:04:51;;;;;;;3.75;0.98;;;24.10;99.90;;;;;;5089426;28;20028;-81
2023/09/13 10:07:16;;;;;;;2.10;0.80;;;24.10;99.90;;;;;;5088790;28;20059;-81
2023/09/13 10:09:45;;;;;;;6.75;1.58;;;24.10;99.90;;;;;;5089334;28;20059;-80
2023/09/13 10:12:12;;;;;;;1.65;0.95;;;24.10;99.90;;;;;;5089522;28;20051;-80
2023/09/13 10:14:40;;;;;;;1.10;0.65;;;24.60;99.90;;;;;;5089370;28;20552;-80
2023/09/13 10:17:07;;;;;;;1.40;0.88;;;25.10;99.90;;;;;;5088837;28;20077;-82
2023/09/13 10:19:34;;;;;;;0.95;0.65;;;25.00;99.90;;;;;;5093007;28;20127;-81
2023/09/13 10:22:01;;;;;;;1.23;0.75;;;25.20;99.90;;;;;;5088212;28;20047;-83
2023/09/13 10:24:49;;;;;;;1.00;0.85;;;25.10;99.90;;;;;;5086798;28;20021;-81
2023/09/13 10:27:17;;;;;;;1.20;1.00;;;25.20;99.90;;;;;;5088481;28;20069;-81
2023/09/13 10:29:51;;;;;;;0.60;0.60;;;24.80;99.90;;;;;;5088810;28;20023;-82
2023/09/13 10:32:19;;;;;;;1.02;1.02;;;24.60;99.90;;;;;;5087039;28;20024;-82
2023/09/13 10:34:56;;;;;;;0.70;0.70;;;24.60;99.90;;;;;;5088141;28;20024;-79
2023/09/13 10:38:08;;;;;;;1.08;0.98;;;24.40;99.90;;;;;;5087340;28;20073;-81
2023/09/13 10:40:58;;;;;;;1.10;0.55;;;24.50;99.90;;;;;;5087615;28;20044;-79
2023/09/13 10:43:26;;;;;;;2.05;1.00;;;24.60;99.90;;;;;;5089846;28;20044;-79
2023/09/13 10:45:52;;;;;;;0.83;0.73;;;25.00;99.90;;;;;;5094201;28;20073;-81
2023/09/13 10:48:18;;;;;;;1.17;1.00;;;25.00;99.00;;;;;;5098986;28;20016;-81
2023/09/13 10:50:44;;;;;;;0.68;0.63;;;24.70;98.80;;;;;;5099302;28;20027;-79
2023/09/13 10:53:11;;;;;;;0.60;0.60;;;25.00;99.10;;;;;;5098791;28;20087;-80
2023/09/13 10:55:38;;;;;;;0.75;0.75;;;25.10;98.60;;;;;;5098573;28;20047;-80
2023/09/13 10:58:06;;;;;;;2.78;0.73;;;25.30;98.20;;;;;;5098604;28;20262;-80
2023/09/13 11:00:32;;;;;;;0.73;0.73;;;25.30;97.20;;;;;;5098158;28;20071;-81
2023/09/13 11:02:59;;;;;;;0.82;0.82;;;25.70;97.30;;;;;;5097887;28;20043;-79
2023/09/13 11:05:27;;;;;;;0.70;0.70;;;25.60;96.50;;;;;;5098859;28;20020;-81
2023/09/13 11:07:53;;;;;;;0.68;0.60;;;25.50;96.10;;;;;;5098809;28;20024;-80
2023/09/13 11:10:20;;;;;;;2.15;0.70;;;25.20;96.80;;;;;;5098846;28;20027;-79
2023/09/13 11:12:50;;;;;;;0.80;0.63;;;25.20;96.60;;;;;;5099047;28;20087;-79
2023/09/13 11:15:23;;;;;;;3.20;0.73;;;25.40;96.30;;;;;;5100106;28;20012;-81
2023/09/13 11:17:56;;;;;;;1.70;0.98;;;25.30;97.20;;;;;;5098509;28;20362;-79
2023/09/13 11:20:38;;;;;;;4.32;1.05;;;25.20;97.90;;;;;;5091062;28;20047;-78
2023/09/13 11:23:09;;;;;;;0.90;0.73;;;24.80;99.00;;;;;;5088707;28;20093;-79
2023/09/13 11:25:46;;;;;;;1.38;1.15;;;24.60;98.70;;;;;;5087052;28;20024;-78
2023/09/13 11:28:37;;;;;;;0.73;0.73;;;24.90;99.00;;;;;;5083034;28;20048;-79
2023/09/13 11:31:03;;;;;;;1.02;0.90;;;25.30;99.10;;;;;;5084648;28;20024;-80
2023/09/13 11:33:31;;;;;;;0.88;0.88;;;24.90;99.80;;;;;;5083478;28;20107;-81
2023/09/13 11:35:58;;;;;;;1.00;1.00;;;24.90;99.60;;;;;;5087717;28;20065;-80
2023/09/13 11:38:25;;;;;;;1.10;1.00;;;25.00;99.40;;;;;;5086983;28;20537;-79
2023/09/13 11:40:55;;;;;;;1.25;1.05;;;25.20;99.40;;;;;;5084433;28;20052;-81
2023/09/13 11:43:25;;;;;;;0.95;0.82;;;25.50;98.30;;;;;;5087122;28;20100;-79
2023/09/13 11:45:54;;;;;;;3.05;0.85;;;25.60;98.50;;;;;;5087632;28;20173;-78
2023/09/13 11:48:32;;;;;;;;;;;25.60;98.50;;;;;;5088934;28;20016;-80
2023/09/13 11:51:09;;;;;;;0.50;0.50;;;25.50;97.00;;;;;;5087050;28;19904;-80
2023/09/13 11:53:36;;;;;;;0.80;0.80;;;25.70;97.10;;;;;;5087374;28;20024;-81
2023/09/13 11:56:02;;;;;;;0.68;0.68;;;25.80;97.00;;;;;;5087669;28;20074;-82
2023/09/13 11:58:36;;;;;;;0.88;0.88;;;25.80;97.20;;;;;;5099968;28;20647;-80
2023/09/13 12:01:04;;;;;;;0.60;0.60;;;25.30;96.90;;;;;;5099228;28;20024;-80
2023/09/13 12:03:40;;;;;;;1.73;0.60;;;24.90;97.30;;;;;;5095138;28;20127;-80
2023/09/13 12:06:07;;;;;;;0.95;0.52;;;24.70;98.10;;;;;;5094806;28;20089;-80
2023/09/13 12:08:37;;;;;;;1.02;1.02;;;24.40;99.10;;;;;;5094193;28;20019;-74
2023/09/13 12:11:05;;;;;;;0.90;0.80;;;24.30;99.90;;;;;;5095819;28;20039;-78
2023/09/13 12:13:43;;;;;;;1.15;1.05;;;24.00;98.50;;;;;;5079613;28;20028;-79
2023/09/13 12:16:09;;;;;;;1.17;0.90;;;24.10;99.50;;;;;;5089044;28;20084;-79
2023/09/13 12:18:40;;;;;;;1.27;0.77;;;24.20;99.00;;;;;;5090736;28;20083;-79
2023/09/13 12:21:07;;;;;;;0.60;0.60;;;24.00;99.50;;;;;;5084475;28;20496;-80
2023/09/13 12:23:42;;;;;;;0.65;0.65;;;23.90;99.50;;;;;;5078588;28;20020;-80
2023/09/13 12:26:11;;;;;;;0.88;0.73;;;23.90;99.40;;;;;;5119765;27;20312;-80
2023/09/13 12:28:42;;;;;;;1.35;0.90;;;24.00;99.00;;;;;;5091785;28;20016;-79
2023/09/13 12:31:12;;;;;;;0.98;0.80;;;24.40;99.50;;;;;;5088323;28;20032;-79
2023/09/13 12:33:40;;;;;;;1.58;1.00;;;24.80;98.00;;;;;;5098997;28;20030;-80
2023/09/13 12:36:06;;;;;;;0.50;0.50;;;24.80;97.00;;;;;;5094341;28;20113;-80
2023/09/13 12:38:44;;;;;;;0.70;0.70;;;24.90;96.80;;;;;;5107172;28;20307;-80
2023/09/13 12:41:10;;;;;;;1.10;0.88;;;25.20;96.80;;;;;;5111327;28;20096;-79
2023/09/13 12:43:39;;;;;;;0.75;0.50;;;25.30;96.40;;;;;;5109246;28;20016;-81
2023/09/13 12:46:06;;;;;;;0.50;0.50;;;25.20;96.30;;;;;;5106214;28;20246;-79
2023/09/13 12:48:32;;;;;;;1.00;1.00;;;24.90;97.20;;;;;;5106072;28;20110;-80
2023/09/13 12:51:01;;;;;;;0.75;0.75;;;24.50;96.90;;;;;;5108313;28;20626;-80